<?xml version="1.0" encoding="UTF-8" standalone="no" ?>
<gpx xmlns="http://www.topografix.com/GPX/1/1" xmlns:xsi="http://www.w3.org/2001/XMLSchema-instance" xsi:schemaLocation="http://www.topografix.com/GPX/1/1 http://www.topografix.com/GPX/1/1/gpx.xsd" version="1.1" creator="VisuGPX - https://www.visugpx.com">
  <metadata>
    <name>A fond la forme</name>
    <desc><![CDATA[Après 12 km de fond, un peu de vitesse pour achever la bête]]></desc>
  </metadata>
  <trk>
    <name><![CDATA[A fond la forme_1]]></name>
    <trkseg>
      <trkpt lat="46.39365" lon="-0.39151">
        <ele>35.1</ele>
        <time>2012-07-30T18:11:40Z</time>
      </trkpt>
      <trkpt lat="46.39365" lon="-0.39151">
        <ele>52.9</ele>
        <time>2012-07-30T18:11:41Z</time>
      </trkpt>
      <trkpt lat="46.39352" lon="-0.39143">
        <ele>53.9</ele>
        <time>2012-07-30T18:11:54Z</time>
      </trkpt>
      <trkpt lat="46.39337" lon="-0.39133">
        <ele>52.9</ele>
        <time>2012-07-30T18:11:59Z</time>
      </trkpt>
      <trkpt lat="46.39316" lon="-0.39112">
        <ele>53.9</ele>
        <time>2012-07-30T18:12:08Z</time>
      </trkpt>
      <trkpt lat="46.393" lon="-0.39098">
        <ele>53.9</ele>
        <time>2012-07-30T18:12:14Z</time>
      </trkpt>
      <trkpt lat="46.39287" lon="-0.39087">
        <ele>53.9</ele>
        <time>2012-07-30T18:12:20Z</time>
      </trkpt>
      <trkpt lat="46.39244" lon="-0.39052">
        <ele>60.9</ele>
        <time>2012-07-30T18:12:40Z</time>
      </trkpt>
      <trkpt lat="46.3923" lon="-0.39039">
        <ele>60.9</ele>
        <time>2012-07-30T18:12:45Z</time>
      </trkpt>
      <trkpt lat="46.39217" lon="-0.39026">
        <ele>58.9</ele>
        <time>2012-07-30T18:12:50Z</time>
      </trkpt>
      <trkpt lat="46.39198" lon="-0.39008">
        <ele>56.9</ele>
        <time>2012-07-30T18:12:58Z</time>
      </trkpt>
      <trkpt lat="46.39188" lon="-0.38994">
        <ele>55.9</ele>
        <time>2012-07-30T18:13:03Z</time>
      </trkpt>
      <trkpt lat="46.39177" lon="-0.38978">
        <ele>51.9</ele>
        <time>2012-07-30T18:13:08Z</time>
      </trkpt>
      <trkpt lat="46.39163" lon="-0.38953">
        <ele>49.9</ele>
        <time>2012-07-30T18:13:16Z</time>
      </trkpt>
      <trkpt lat="46.39153" lon="-0.38934">
        <ele>48.9</ele>
        <time>2012-07-30T18:13:22Z</time>
      </trkpt>
      <trkpt lat="46.39143" lon="-0.38917">
        <ele>46.9</ele>
        <time>2012-07-30T18:13:28Z</time>
      </trkpt>
      <trkpt lat="46.39121" lon="-0.38887">
        <ele>52.9</ele>
        <time>2012-07-30T18:13:41Z</time>
      </trkpt>
      <trkpt lat="46.39104" lon="-0.38866">
        <ele>54.9</ele>
        <time>2012-07-30T18:13:47Z</time>
      </trkpt>
      <trkpt lat="46.39089" lon="-0.38852">
        <ele>54.9</ele>
        <time>2012-07-30T18:13:52Z</time>
      </trkpt>
      <trkpt lat="46.39076" lon="-0.38841">
        <ele>54.9</ele>
        <time>2012-07-30T18:13:56Z</time>
      </trkpt>
      <trkpt lat="46.39048" lon="-0.38824">
        <ele>53.9</ele>
        <time>2012-07-30T18:14:05Z</time>
      </trkpt>
      <trkpt lat="46.39033" lon="-0.38825">
        <ele>52.9</ele>
        <time>2012-07-30T18:14:10Z</time>
      </trkpt>
      <trkpt lat="46.39019" lon="-0.38825">
        <ele>52.9</ele>
        <time>2012-07-30T18:14:14Z</time>
      </trkpt>
      <trkpt lat="46.38995" lon="-0.38824">
        <ele>50.9</ele>
        <time>2012-07-30T18:14:21Z</time>
      </trkpt>
      <trkpt lat="46.38973" lon="-0.38821">
        <ele>49.9</ele>
        <time>2012-07-30T18:14:28Z</time>
      </trkpt>
      <trkpt lat="46.38958" lon="-0.38815">
        <ele>49.9</ele>
        <time>2012-07-30T18:14:33Z</time>
      </trkpt>
      <trkpt lat="46.38943" lon="-0.38805">
        <ele>50.9</ele>
        <time>2012-07-30T18:14:38Z</time>
      </trkpt>
      <trkpt lat="46.3893" lon="-0.38794">
        <ele>51.9</ele>
        <time>2012-07-30T18:14:43Z</time>
      </trkpt>
      <trkpt lat="46.38918" lon="-0.38784">
        <ele>51.9</ele>
        <time>2012-07-30T18:14:48Z</time>
      </trkpt>
      <trkpt lat="46.389" lon="-0.38762">
        <ele>51.9</ele>
        <time>2012-07-30T18:14:56Z</time>
      </trkpt>
      <trkpt lat="46.38888" lon="-0.3875">
        <ele>51.9</ele>
        <time>2012-07-30T18:15:01Z</time>
      </trkpt>
      <trkpt lat="46.38875" lon="-0.38735">
        <ele>50.9</ele>
        <time>2012-07-30T18:15:06Z</time>
      </trkpt>
      <trkpt lat="46.38862" lon="-0.38721">
        <ele>50.9</ele>
        <time>2012-07-30T18:15:11Z</time>
      </trkpt>
      <trkpt lat="46.3885" lon="-0.38708">
        <ele>49.9</ele>
        <time>2012-07-30T18:15:16Z</time>
      </trkpt>
      <trkpt lat="46.38835" lon="-0.38694">
        <ele>48.9</ele>
        <time>2012-07-30T18:15:22Z</time>
      </trkpt>
      <trkpt lat="46.38821" lon="-0.38677">
        <ele>48.9</ele>
        <time>2012-07-30T18:15:28Z</time>
      </trkpt>
      <trkpt lat="46.38801" lon="-0.38652">
        <ele>48.9</ele>
        <time>2012-07-30T18:15:36Z</time>
      </trkpt>
      <trkpt lat="46.38778" lon="-0.38629">
        <ele>52.9</ele>
        <time>2012-07-30T18:15:45Z</time>
      </trkpt>
      <trkpt lat="46.3877" lon="-0.38613">
        <ele>53.9</ele>
        <time>2012-07-30T18:15:50Z</time>
      </trkpt>
      <trkpt lat="46.38762" lon="-0.38595">
        <ele>52.9</ele>
        <time>2012-07-30T18:15:56Z</time>
      </trkpt>
      <trkpt lat="46.38752" lon="-0.38572">
        <ele>51.9</ele>
        <time>2012-07-30T18:16:03Z</time>
      </trkpt>
      <trkpt lat="46.38743" lon="-0.38554">
        <ele>51.9</ele>
        <time>2012-07-30T18:16:08Z</time>
      </trkpt>
      <trkpt lat="46.38734" lon="-0.38533">
        <ele>52.9</ele>
        <time>2012-07-30T18:16:14Z</time>
      </trkpt>
      <trkpt lat="46.38725" lon="-0.38515">
        <ele>52.9</ele>
        <time>2012-07-30T18:16:19Z</time>
      </trkpt>
      <trkpt lat="46.38714" lon="-0.38501">
        <ele>53.9</ele>
        <time>2012-07-30T18:16:25Z</time>
      </trkpt>
      <trkpt lat="46.38706" lon="-0.38482">
        <ele>53.9</ele>
        <time>2012-07-30T18:16:30Z</time>
      </trkpt>
      <trkpt lat="46.387" lon="-0.38463">
        <ele>53.9</ele>
        <time>2012-07-30T18:16:34Z</time>
      </trkpt>
      <trkpt lat="46.38687" lon="-0.38425">
        <ele>54.9</ele>
        <time>2012-07-30T18:16:43Z</time>
      </trkpt>
      <trkpt lat="46.38676" lon="-0.38413">
        <ele>54.9</ele>
        <time>2012-07-30T18:16:47Z</time>
      </trkpt>
      <trkpt lat="46.3866" lon="-0.38409">
        <ele>54.9</ele>
        <time>2012-07-30T18:16:52Z</time>
      </trkpt>
      <trkpt lat="46.38648" lon="-0.38419">
        <ele>56.9</ele>
        <time>2012-07-30T18:17:00Z</time>
      </trkpt>
      <trkpt lat="46.38636" lon="-0.38435">
        <ele>56.9</ele>
        <time>2012-07-30T18:17:05Z</time>
      </trkpt>
      <trkpt lat="46.38613" lon="-0.38464">
        <ele>55.9</ele>
        <time>2012-07-30T18:17:14Z</time>
      </trkpt>
      <trkpt lat="46.38591" lon="-0.38494">
        <ele>54.9</ele>
        <time>2012-07-30T18:17:22Z</time>
      </trkpt>
      <trkpt lat="46.3858" lon="-0.38509">
        <ele>56.9</ele>
        <time>2012-07-30T18:17:27Z</time>
      </trkpt>
      <trkpt lat="46.3857" lon="-0.38525">
        <ele>59.9</ele>
        <time>2012-07-30T18:17:32Z</time>
      </trkpt>
      <trkpt lat="46.38555" lon="-0.38556">
        <ele>60.9</ele>
        <time>2012-07-30T18:17:41Z</time>
      </trkpt>
      <trkpt lat="46.38551" lon="-0.38576">
        <ele>59.9</ele>
        <time>2012-07-30T18:17:46Z</time>
      </trkpt>
      <trkpt lat="46.3855" lon="-0.38597">
        <ele>59.9</ele>
        <time>2012-07-30T18:17:51Z</time>
      </trkpt>
      <trkpt lat="46.38548" lon="-0.38617">
        <ele>59.9</ele>
        <time>2012-07-30T18:17:56Z</time>
      </trkpt>
      <trkpt lat="46.38546" lon="-0.38645">
        <ele>58.9</ele>
        <time>2012-07-30T18:18:03Z</time>
      </trkpt>
      <trkpt lat="46.38542" lon="-0.38665">
        <ele>58.9</ele>
        <time>2012-07-30T18:18:08Z</time>
      </trkpt>
      <trkpt lat="46.38534" lon="-0.38696">
        <ele>57.9</ele>
        <time>2012-07-30T18:18:16Z</time>
      </trkpt>
      <trkpt lat="46.38524" lon="-0.38724">
        <ele>60.9</ele>
        <time>2012-07-30T18:18:29Z</time>
      </trkpt>
      <trkpt lat="46.3852" lon="-0.38736">
        <ele>61.9</ele>
        <time>2012-07-30T18:18:34Z</time>
      </trkpt>
      <trkpt lat="46.38504" lon="-0.38767">
        <ele>64.9</ele>
        <time>2012-07-30T18:18:45Z</time>
      </trkpt>
      <trkpt lat="46.38493" lon="-0.38783">
        <ele>65.9</ele>
        <time>2012-07-30T18:18:51Z</time>
      </trkpt>
      <trkpt lat="46.38477" lon="-0.38809">
        <ele>66.9</ele>
        <time>2012-07-30T18:18:58Z</time>
      </trkpt>
      <trkpt lat="46.38467" lon="-0.38834">
        <ele>65.9</ele>
        <time>2012-07-30T18:19:04Z</time>
      </trkpt>
      <trkpt lat="46.38453" lon="-0.38873">
        <ele>63.9</ele>
        <time>2012-07-30T18:19:15Z</time>
      </trkpt>
      <trkpt lat="46.38445" lon="-0.38895">
        <ele>63.9</ele>
        <time>2012-07-30T18:19:20Z</time>
      </trkpt>
      <trkpt lat="46.38431" lon="-0.38934">
        <ele>63.9</ele>
        <time>2012-07-30T18:19:28Z</time>
      </trkpt>
      <trkpt lat="46.38423" lon="-0.38954">
        <ele>64.9</ele>
        <time>2012-07-30T18:19:32Z</time>
      </trkpt>
      <trkpt lat="46.38401" lon="-0.38952">
        <ele>64.9</ele>
        <time>2012-07-30T18:19:42Z</time>
      </trkpt>
      <trkpt lat="46.38388" lon="-0.38927">
        <ele>64.9</ele>
        <time>2012-07-30T18:19:48Z</time>
      </trkpt>
      <trkpt lat="46.3838" lon="-0.38909">
        <ele>64.9</ele>
        <time>2012-07-30T18:19:52Z</time>
      </trkpt>
      <trkpt lat="46.3837" lon="-0.38889">
        <ele>62.9</ele>
        <time>2012-07-30T18:19:57Z</time>
      </trkpt>
      <trkpt lat="46.3837" lon="-0.38889">
        <ele>33.7</ele>
        <time>2012-07-30T18:20:00Z</time>
      </trkpt>
    </trkseg>
  </trk>
</gpx>